Pine Falls, Canada
Current Conditions -  °F | °C
As of 1:00 PM on Saturday 25 Oct 2014 (Local Time) from CYWG Reporting Station
Few Clouds Few Clouds  
Wind Chill: 54°   Ceiling: Unl
Heat Index: 54°   Visibility: 15mi
Dew Point: 30°   Wind: 17mph
Humidity: 41%   Direction: 300°WNW
Pressure: 30.01"   Gusts: 29mph
Location:  50.55°N, 96.23°W
Report Text: CYWG 251800Z 30015G25KT 15SM FEW200 12/M01 A3001 RMK CI1 CI TR SLP167
Loading
Personal Weather Stations






























Interactive Weather Map
Tropical Storm Tracking
New forecast layout! Learn more

10-Day Weather Forecast

Advertisements
Track Severe Weather on mobile